sensor_id;sensor_type;location;lat;lon;timestamp;P1;durP1;ratioP1;P2;durP2;ratioP2
71303;SDS011;59091;47.446;19.148;2023-08-24T00:01:36;10.63;;;6.63;;
71303;SDS011;59091;47.446;19.148;2023-08-24T00:04:02;9.43;;;6.90;;
71303;SDS011;59091;47.446;19.148;2023-08-24T00:06:28;9.30;;;7.00;;
71303;SDS011;59091;47.446;19.148;2023-08-24T00:08:53;7.97;;;6.88;;
71303;SDS011;59091;47.446;19.148;2023-08-24T00:11:18;9.95;;;6.55;;
71303;SDS011;59091;47.446;19.148;2023-08-24T00:13:44;7.50;;;6.50;;
71303;SDS011;59091;47.446;19.148;2023-08-24T00:16:17;7.70;;;6.68;;
71303;SDS011;59091;47.446;19.148;2023-08-24T00:18:43;7.75;;;6.88;;
71303;SDS011;59091;47.446;19.148;2023-08-24T00:21:10;9.10;;;7.20;;
71303;SDS011;59091;47.446;19.148;2023-08-24T00:23:35;9.18;;;7.25;;
71303;SDS011;59091;47.446;19.148;2023-08-24T00:26:01;8.27;;;7.13;;
71303;SDS011;59091;47.446;19.148;2023-08-24T00:28:26;10.10;;;7.70;;
71303;SDS011;59091;47.446;19.148;2023-08-24T00:30:52;9.10;;;7.13;;
71303;SDS011;59091;47.446;19.148;2023-08-24T00:33:17;11.63;;;7.72;;
71303;SDS011;59091;47.446;19.148;2023-08-24T00:35:43;7.95;;;7.15;;
71303;SDS011;59091;47.446;19.148;2023-08-24T00:38:08;8.68;;;7.43;;
71303;SDS011;59091;47.446;19.148;2023-08-24T00:40:34;9.27;;;7.25;;
71303;SDS011;59091;47.446;19.148;2023-08-24T00:42:59;8.98;;;7.60;;
71303;SDS011;59091;47.446;19.148;2023-08-24T00:45:25;7.75;;;7.00;;
71303;SDS011;59091;47.446;19.148;2023-08-24T00:47:50;8.25;;;7.50;;
71303;SDS011;59091;47.446;19.148;2023-08-24T00:50:17;9.52;;;7.22;;
71303;SDS011;59091;47.446;19.148;2023-08-24T00:52:43;9.98;;;7.55;;
71303;SDS011;59091;47.446;19.148;2023-08-24T00:55:09;9.13;;;7.28;;
71303;SDS011;59091;47.446;19.148;2023-08-24T00:57:35;11.10;;;7.47;;
71303;SDS011;59091;47.446;19.148;2023-08-24T01:00:03;8.60;;;7.70;;
71303;SDS011;59091;47.446;19.148;2023-08-24T01:02:31;10.15;;;7.60;;
71303;SDS011;59091;47.446;19.148;2023-08-24T01:04:56;7.97;;;7.18;;
71303;SDS011;59091;47.446;19.148;2023-08-24T01:07:23;12.38;;;7.28;;
71303;SDS011;59091;47.446;19.148;2023-08-24T01:09:49;12.20;;;7.53;;
71303;SDS011;59091;47.446;19.148;2023-08-24T01:15:04;10.13;;;7.22;;
71303;SDS011;59091;47.446;19.148;2023-08-24T01:17:42;11.95;;;7.82;;
71303;SDS011;59091;47.446;19.148;2023-08-24T01:20:09;11.38;;;7.63;;
71303;SDS011;59091;47.446;19.148;2023-08-24T01:22:55;9.07;;;7.68;;
71303;SDS011;59091;47.446;19.148;2023-08-24T01:28:03;12.15;;;7.30;;
71303;SDS011;59091;47.446;19.148;2023-08-24T01:30:32;12.35;;;7.65;;
71303;SDS011;59091;47.446;19.148;2023-08-24T01:33:00;8.15;;;7.32;;
71303;SDS011;59091;47.446;19.148;2023-08-24T01:35:28;9.40;;;7.20;;
71303;SDS011;59091;47.446;19.148;2023-08-24T01:37:53;11.63;;;7.72;;
71303;SDS011;59091;47.446;19.148;2023-08-24T01:41:22;9.82;;;7.10;;
71303;SDS011;59091;47.446;19.148;2023-08-24T01:43:25;9.23;;;7.75;;
71303;SDS011;59091;47.446;19.148;2023-08-24T01:45:55;8.45;;;7.30;;
71303;SDS011;59091;47.446;19.148;2023-08-24T01:48:23;13.63;;;7.72;;
71303;SDS011;59091;47.446;19.148;2023-08-24T01:50:50;8.02;;;7.18;;
71303;SDS011;59091;47.446;19.148;2023-08-24T01:53:16;10.52;;;7.80;;
71303;SDS011;59091;47.446;19.148;2023-08-24T01:55:42;10.23;;;7.25;;
71303;SDS011;59091;47.446;19.148;2023-08-24T01:58:08;8.82;;;7.20;;
71303;SDS011;59091;47.446;19.148;2023-08-24T02:00:33;7.90;;;7.10;;
71303;SDS011;59091;47.446;19.148;2023-08-24T02:02:59;11.75;;;7.43;;
71303;SDS011;59091;47.446;19.148;2023-08-24T02:05:25;7.75;;;6.95;;
71303;SDS011;59091;47.446;19.148;2023-08-24T02:07:52;12.02;;;7.30;;
71303;SDS011;59091;47.446;19.148;2023-08-24T02:10:19;7.88;;;7.07;;
71303;SDS011;59091;47.446;19.148;2023-08-24T02:12:44;8.23;;;7.43;;
71303;SDS011;59091;47.446;19.148;2023-08-24T02:15:09;12.52;;;7.60;;
71303;SDS011;59091;47.446;19.148;2023-08-24T02:17:35;10.80;;;7.57;;
71303;SDS011;59091;47.446;19.148;2023-08-24T02:20:01;8.20;;;7.40;;
71303;SDS011;59091;47.446;19.148;2023-08-24T02:22:26;7.20;;;6.45;;
71303;SDS011;59091;47.446;19.148;2023-08-24T02:24:53;9.30;;;7.07;;
71303;SDS011;59091;47.446;19.148;2023-08-24T02:27:19;12.43;;;7.50;;
71303;SDS011;59091;47.446;19.148;2023-08-24T02:29:44;10.57;;;6.85;;
71303;SDS011;59091;47.446;19.148;2023-08-24T02:32:10;9.02;;;7.18;;
71303;SDS011;59091;47.446;19.148;2023-08-24T02:34:35;12.45;;;7.90;;
71303;SDS011;59091;47.446;19.148;2023-08-24T02:37:01;9.32;;;8.07;;
71303;SDS011;59091;47.446;19.148;2023-08-24T02:39:26;9.27;;;8.00;;
71303;SDS011;59091;47.446;19.148;2023-08-24T02:41:52;8.40;;;7.53;;
71303;SDS011;59091;47.446;19.148;2023-08-24T02:44:17;9.15;;;7.80;;
71303;SDS011;59091;47.446;19.148;2023-08-24T02:46:47;11.10;;;7.68;;
71303;SDS011;59091;47.446;19.148;2023-08-24T02:49:13;10.70;;;8.00;;
71303;SDS011;59091;47.446;19.148;2023-08-24T02:51:38;9.13;;;8.15;;
71303;SDS011;59091;47.446;19.148;2023-08-24T02:54:04;10.23;;;7.97;;
71303;SDS011;59091;47.446;19.148;2023-08-24T02:56:30;13.20;;;9.02;;
71303;SDS011;59091;47.446;19.148;2023-08-24T02:58:55;9.63;;;8.13;;
71303;SDS011;59091;47.446;19.148;2023-08-24T03:01:20;10.05;;;8.60;;
71303;SDS011;59091;47.446;19.148;2023-08-24T03:03:46;11.27;;;8.40;;
71303;SDS011;59091;47.446;19.148;2023-08-24T03:06:12;12.23;;;8.48;;
71303;SDS011;59091;47.446;19.148;2023-08-24T03:08:37;11.70;;;8.13;;
71303;SDS011;59091;47.446;19.148;2023-08-24T03:11:03;10.68;;;8.27;;
71303;SDS011;59091;47.446;19.148;2023-08-24T03:13:29;14.35;;;8.25;;
71303;SDS011;59091;47.446;19.148;2023-08-24T03:15:55;9.77;;;8.18;;
71303;SDS011;59091;47.446;19.148;2023-08-24T03:18:21;10.52;;;8.15;;
71303;SDS011;59091;47.446;19.148;2023-08-24T03:20:47;9.80;;;8.15;;
71303;SDS011;59091;47.446;19.148;2023-08-24T03:23:14;10.90;;;8.27;;
71303;SDS011;59091;47.446;19.148;2023-08-24T03:25:40;10.38;;;8.57;;
71303;SDS011;59091;47.446;19.148;2023-08-24T03:28:06;11.50;;;8.32;;
71303;SDS011;59091;47.446;19.148;2023-08-24T03:30:36;14.05;;;8.70;;
71303;SDS011;59091;47.446;19.148;2023-08-24T03:33:02;9.40;;;8.48;;
71303;SDS011;59091;47.446;19.148;2023-08-24T03:35:30;11.27;;;8.38;;
71303;SDS011;59091;47.446;19.148;2023-08-24T03:37:56;10.55;;;8.48;;
71303;SDS011;59091;47.446;19.148;2023-08-24T03:40:21;10.23;;;8.80;;
71303;SDS011;59091;47.446;19.148;2023-08-24T03:42:47;11.57;;;8.20;;
71303;SDS011;59091;47.446;19.148;2023-08-24T03:45:12;12.30;;;9.05;;
71303;SDS011;59091;47.446;19.148;2023-08-24T03:47:38;13.02;;;8.65;;
71303;SDS011;59091;47.446;19.148;2023-08-24T03:50:03;14.07;;;8.95;;
71303;SDS011;59091;47.446;19.148;2023-08-24T03:52:29;10.57;;;9.10;;
71303;SDS011;59091;47.446;19.148;2023-08-24T03:54:55;13.05;;;9.13;;
71303;SDS011;59091;47.446;19.148;2023-08-24T03:57:20;10.80;;;8.65;;
71303;SDS011;59091;47.446;19.148;2023-08-24T03:59:45;11.93;;;8.82;;
71303;SDS011;59091;47.446;19.148;2023-08-24T04:02:11;10.30;;;8.88;;
71303;SDS011;59091;47.446;19.148;2023-08-24T04:04:36;11.05;;;9.35;;
71303;SDS011;59091;47.446;19.148;2023-08-24T04:07:02;15.10;;;8.85;;
71303;SDS011;59091;47.446;19.148;2023-08-24T04:09:28;15.65;;;9.30;;
71303;SDS011;59091;47.446;19.148;2023-08-24T04:11:54;16.48;;;9.68;;
71303;SDS011;59091;47.446;19.148;2023-08-24T04:14:19;15.30;;;9.93;;
71303;SDS011;59091;47.446;19.148;2023-08-24T04:16:45;16.05;;;9.80;;
71303;SDS011;59091;47.446;19.148;2023-08-24T04:19:10;12.80;;;10.00;;
71303;SDS011;59091;47.446;19.148;2023-08-24T04:21:35;17.65;;;10.00;;
71303;SDS011;59091;47.446;19.148;2023-08-24T04:24:01;13.98;;;9.93;;
71303;SDS011;59091;47.446;19.148;2023-08-24T04:26:26;14.85;;;9.65;;
71303;SDS011;59091;47.446;19.148;2023-08-24T04:28:52;18.77;;;10.30;;
71303;SDS011;59091;47.446;19.148;2023-08-24T04:31:17;16.90;;;10.73;;
71303;SDS011;59091;47.446;19.148;2023-08-24T04:33:42;12.13;;;9.90;;
71303;SDS011;59091;47.446;19.148;2023-08-24T04:36:08;13.80;;;10.10;;
71303;SDS011;59091;47.446;19.148;2023-08-24T04:38:34;13.13;;;9.88;;
71303;SDS011;59091;47.446;19.148;2023-08-24T04:40:59;18.30;;;10.20;;
71303;SDS011;59091;47.446;19.148;2023-08-24T04:43:25;18.30;;;10.45;;
71303;SDS011;59091;47.446;19.148;2023-08-24T04:45:52;15.50;;;10.27;;
71303;SDS011;59091;47.446;19.148;2023-08-24T04:48:19;14.23;;;10.02;;
71303;SDS011;59091;47.446;19.148;2023-08-24T04:50:48;15.45;;;10.10;;
71303;SDS011;59091;47.446;19.148;2023-08-24T04:53:15;17.25;;;9.93;;
71303;SDS011;59091;47.446;19.148;2023-08-24T04:55:44;16.25;;;10.45;;
71303;SDS011;59091;47.446;19.148;2023-08-24T04:58:10;16.08;;;10.38;;
71303;SDS011;59091;47.446;19.148;2023-08-24T05:00:37;15.48;;;10.02;;
71303;SDS011;59091;47.446;19.148;2023-08-24T05:03:03;14.63;;;10.68;;
71303;SDS011;59091;47.446;19.148;2023-08-24T05:05:30;16.35;;;10.55;;
71303;SDS011;59091;47.446;19.148;2023-08-24T05:07:57;14.75;;;10.25;;
71303;SDS011;59091;47.446;19.148;2023-08-24T05:10:23;15.85;;;10.23;;
71303;SDS011;59091;47.446;19.148;2023-08-24T05:12:49;14.93;;;10.93;;
71303;SDS011;59091;47.446;19.148;2023-08-24T05:15:14;15.32;;;10.32;;
71303;SDS011;59091;47.446;19.148;2023-08-24T05:17:40;18.67;;;10.05;;
71303;SDS011;59091;47.446;19.148;2023-08-24T05:20:06;17.48;;;9.93;;
71303;SDS011;59091;47.446;19.148;2023-08-24T05:22:41;20.08;;;9.93;;
71303;SDS011;59091;47.446;19.148;2023-08-24T05:25:06;15.02;;;9.27;;
71303;SDS011;59091;47.446;19.148;2023-08-24T05:27:32;11.35;;;9.85;;
71303;SDS011;59091;47.446;19.148;2023-08-24T05:29:58;14.88;;;9.57;;
71303;SDS011;59091;47.446;19.148;2023-08-24T05:32:23;13.70;;;9.48;;
71303;SDS011;59091;47.446;19.148;2023-08-24T05:34:49;11.90;;;9.82;;
71303;SDS011;59091;47.446;19.148;2023-08-24T05:37:15;15.98;;;9.38;;
71303;SDS011;59091;47.446;19.148;2023-08-24T05:39:41;16.65;;;10.23;;
71303;SDS011;59091;47.446;19.148;2023-08-24T05:42:07;20.17;;;9.27;;
71303;SDS011;59091;47.446;19.148;2023-08-24T05:44:33;12.25;;;9.68;;
71303;SDS011;59091;47.446;19.148;2023-08-24T05:46:58;15.88;;;9.88;;
71303;SDS011;59091;47.446;19.148;2023-08-24T05:49:24;16.85;;;9.68;;
71303;SDS011;59091;47.446;19.148;2023-08-24T05:51:50;15.05;;;8.80;;
71303;SDS011;59091;47.446;19.148;2023-08-24T05:54:16;14.23;;;9.07;;
71303;SDS011;59091;47.446;19.148;2023-08-24T05:56:44;14.93;;;9.25;;
71303;SDS011;59091;47.446;19.148;2023-08-24T05:59:11;10.77;;;8.57;;
71303;SDS011;59091;47.446;19.148;2023-08-24T06:01:36;15.70;;;8.80;;
71303;SDS011;59091;47.446;19.148;2023-08-24T06:04:06;12.05;;;8.55;;
71303;SDS011;59091;47.446;19.148;2023-08-24T06:06:35;11.30;;;8.05;;
71303;SDS011;59091;47.446;19.148;2023-08-24T06:09:01;11.13;;;8.88;;
71303;SDS011;59091;47.446;19.148;2023-08-24T06:11:30;14.30;;;8.35;;
71303;SDS011;59091;47.446;19.148;2023-08-24T06:13:56;12.55;;;8.02;;
71303;SDS011;59091;47.446;19.148;2023-08-24T06:16:21;14.18;;;8.00;;
71303;SDS011;59091;47.446;19.148;2023-08-24T06:18:46;8.65;;;7.70;;
71303;SDS011;59091;47.446;19.148;2023-08-24T06:21:12;12.32;;;9.23;;
71303;SDS011;59091;47.446;19.148;2023-08-24T06:23:38;18.13;;;8.10;;
71303;SDS011;59091;47.446;19.148;2023-08-24T06:26:04;13.02;;;8.60;;
71303;SDS011;59091;47.446;19.148;2023-08-24T06:28:30;15.07;;;7.93;;
71303;SDS011;59091;47.446;19.148;2023-08-24T06:30:56;12.52;;;7.88;;
71303;SDS011;59091;47.446;19.148;2023-08-24T06:33:27;10.90;;;7.78;;
71303;SDS011;59091;47.446;19.148;2023-08-24T06:35:55;11.18;;;8.02;;
71303;SDS011;59091;47.446;19.148;2023-08-24T06:38:21;13.40;;;7.50;;
71303;SDS011;59091;47.446;19.148;2023-08-24T06:40:46;11.98;;;7.00;;
71303;SDS011;59091;47.446;19.148;2023-08-24T06:43:12;9.40;;;7.10;;
71303;SDS011;59091;47.446;19.148;2023-08-24T06:45:37;7.88;;;7.07;;
71303;SDS011;59091;47.446;19.148;2023-08-24T06:48:03;8.90;;;7.63;;
71303;SDS011;59091;47.446;19.148;2023-08-24T06:50:30;8.85;;;7.35;;
71303;SDS011;59091;47.446;19.148;2023-08-24T06:52:56;9.88;;;7.60;;
71303;SDS011;59091;47.446;19.148;2023-08-24T06:55:21;10.93;;;7.40;;
71303;SDS011;59091;47.446;19.148;2023-08-24T06:57:48;9.20;;;7.97;;
71303;SDS011;59091;47.446;19.148;2023-08-24T07:00:16;8.93;;;7.50;;
71303;SDS011;59091;47.446;19.148;2023-08-24T07:02:42;11.20;;;7.80;;
71303;SDS011;59091;47.446;19.148;2023-08-24T07:05:07;9.85;;;8.10;;
71303;SDS011;59091;47.446;19.148;2023-08-24T07:07:34;13.48;;;8.88;;
71303;SDS011;59091;47.446;19.148;2023-08-24T07:10:00;14.73;;;8.43;;
71303;SDS011;59091;47.446;19.148;2023-08-24T07:12:25;11.20;;;7.63;;
71303;SDS011;59091;47.446;19.148;2023-08-24T07:14:51;8.65;;;6.75;;
71303;SDS011;59091;47.446;19.148;2023-08-24T07:17:16;11.52;;;7.10;;
71303;SDS011;59091;47.446;19.148;2023-08-24T07:19:41;12.55;;;7.00;;
71303;SDS011;59091;47.446;19.148;2023-08-24T07:22:07;12.18;;;7.00;;
71303;SDS011;59091;47.446;19.148;2023-08-24T07:24:33;12.55;;;7.35;;
71303;SDS011;59091;47.446;19.148;2023-08-24T07:27:01;8.52;;;7.28;;
71303;SDS011;59091;47.446;19.148;2023-08-24T07:29:26;9.90;;;6.88;;
71303;SDS011;59091;47.446;19.148;2023-08-24T07:31:51;8.65;;;7.18;;
71303;SDS011;59091;47.446;19.148;2023-08-24T07:34:17;7.95;;;7.00;;
71303;SDS011;59091;47.446;19.148;2023-08-24T07:36:42;7.80;;;6.35;;
71303;SDS011;59091;47.446;19.148;2023-08-24T07:39:09;13.10;;;6.93;;
71303;SDS011;59091;47.446;19.148;2023-08-24T07:41:36;10.13;;;6.60;;
71303;SDS011;59091;47.446;19.148;2023-08-24T07:44:02;18.05;;;7.13;;
71303;SDS011;59091;47.446;19.148;2023-08-24T07:46:27;12.43;;;6.55;;
71303;SDS011;59091;47.446;19.148;2023-08-24T07:48:53;8.30;;;6.43;;
71303;SDS011;59091;47.446;19.148;2023-08-24T07:51:19;8.60;;;6.18;;
71303;SDS011;59091;47.446;19.148;2023-08-24T07:53:44;11.25;;;6.32;;
71303;SDS011;59091;47.446;19.148;2023-08-24T07:56:10;11.30;;;6.20;;
71303;SDS011;59091;47.446;19.148;2023-08-24T07:58:35;11.23;;;5.85;;
71303;SDS011;59091;47.446;19.148;2023-08-24T08:01:01;15.48;;;6.07;;
71303;SDS011;59091;47.446;19.148;2023-08-24T08:03:26;7.20;;;6.22;;
71303;SDS011;59091;47.446;19.148;2023-08-24T08:05:52;9.80;;;6.55;;
71303;SDS011;59091;47.446;19.148;2023-08-24T08:08:17;11.95;;;6.43;;
71303;SDS011;59091;47.446;19.148;2023-08-24T08:10:43;10.23;;;6.15;;
71303;SDS011;59091;47.446;19.148;2023-08-24T08:13:08;14.45;;;6.35;;
71303;SDS011;59091;47.446;19.148;2023-08-24T08:15:37;11.02;;;6.35;;
71303;SDS011;59091;47.446;19.148;2023-08-24T08:18:03;10.80;;;5.65;;
71303;SDS011;59091;47.446;19.148;2023-08-24T08:20:29;8.30;;;6.20;;
71303;SDS011;59091;47.446;19.148;2023-08-24T08:22:55;7.45;;;5.78;;
71303;SDS011;59091;47.446;19.148;2023-08-24T08:25:20;12.07;;;5.90;;
71303;SDS011;59091;47.446;19.148;2023-08-24T08:27:47;11.57;;;5.47;;
71303;SDS011;59091;47.446;19.148;2023-08-24T08:30:13;7.82;;;5.72;;
71303;SDS011;59091;47.446;19.148;2023-08-24T08:32:38;11.25;;;6.30;;
71303;SDS011;59091;47.446;19.148;2023-08-24T08:35:04;7.30;;;5.80;;
71303;SDS011;59091;47.446;19.148;2023-08-24T08:37:31;11.57;;;5.85;;
71303;SDS011;59091;47.446;19.148;2023-08-24T08:39:57;15.07;;;6.03;;
71303;SDS011;59091;47.446;19.148;2023-08-24T08:42:22;10.23;;;6.03;;
71303;SDS011;59091;47.446;19.148;2023-08-24T08:44:48;12.82;;;6.63;;
71303;SDS011;59091;47.446;19.148;2023-08-24T08:47:14;8.20;;;5.85;;
71303;SDS011;59091;47.446;19.148;2023-08-24T08:49:41;10.75;;;5.90;;
71303;SDS011;59091;47.446;19.148;2023-08-24T08:52:08;8.43;;;6.07;;
71303;SDS011;59091;47.446;19.148;2023-08-24T08:54:34;9.60;;;6.10;;
71303;SDS011;59091;47.446;19.148;2023-08-24T08:57:01;11.27;;;6.00;;
71303;SDS011;59091;47.446;19.148;2023-08-24T08:59:29;7.32;;;6.03;;
71303;SDS011;59091;47.446;19.148;2023-08-24T09:01:56;13.95;;;6.35;;
71303;SDS011;59091;47.446;19.148;2023-08-24T09:04:23;12.25;;;6.43;;
71303;SDS011;59091;47.446;19.148;2023-08-24T09:06:49;9.30;;;6.38;;
71303;SDS011;59091;47.446;19.148;2023-08-24T09:09:15;11.35;;;6.65;;
71303;SDS011;59091;47.446;19.148;2023-08-24T09:11:41;7.68;;;6.03;;
71303;SDS011;59091;47.446;19.148;2023-08-24T09:14:07;7.93;;;6.20;;
71303;SDS011;59091;47.446;19.148;2023-08-24T09:16:32;13.00;;;6.75;;
71303;SDS011;59091;47.446;19.148;2023-08-24T09:19:00;11.20;;;6.57;;
71303;SDS011;59091;47.446;19.148;2023-08-24T09:21:30;12.38;;;6.38;;
71303;SDS011;59091;47.446;19.148;2023-08-24T09:23:56;10.18;;;6.47;;
71303;SDS011;59091;47.446;19.148;2023-08-24T09:26:31;10.43;;;6.50;;
71303;SDS011;59091;47.446;19.148;2023-08-24T09:28:59;10.05;;;6.28;;
71303;SDS011;59091;47.446;19.148;2023-08-24T09:31:35;8.32;;;6.13;;
71303;SDS011;59091;47.446;19.148;2023-08-24T09:34:02;10.30;;;5.85;;
71303;SDS011;59091;47.446;19.148;2023-08-24T09:36:31;10.30;;;6.13;;
71303;SDS011;59091;47.446;19.148;2023-08-24T09:38:58;11.13;;;5.70;;
71303;SDS011;59091;47.446;19.148;2023-08-24T09:41:24;10.07;;;5.88;;
71303;SDS011;59091;47.446;19.148;2023-08-24T09:43:50;10.60;;;5.97;;
71303;SDS011;59091;47.446;19.148;2023-08-24T09:46:19;10.95;;;6.03;;
71303;SDS011;59091;47.446;19.148;2023-08-24T09:48:52;6.32;;;5.53;;
71303;SDS011;59091;47.446;19.148;2023-08-24T09:51:18;8.43;;;6.10;;
71303;SDS011;59091;47.446;19.148;2023-08-24T09:53:44;8.98;;;5.88;;
71303;SDS011;59091;47.446;19.148;2023-08-24T09:56:09;6.63;;;5.80;;
71303;SDS011;59091;47.446;19.148;2023-08-24T09:58:38;5.85;;;5.25;;
71303;SDS011;59091;47.446;19.148;2023-08-24T10:01:04;7.07;;;5.40;;
71303;SDS011;59091;47.446;19.148;2023-08-24T10:03:31;8.88;;;5.32;;
71303;SDS011;59091;47.446;19.148;2023-08-24T10:05:57;6.97;;;5.18;;
71303;SDS011;59091;47.446;19.148;2023-08-24T10:08:26;5.85;;;5.10;;
71303;SDS011;59091;47.446;19.148;2023-08-24T10:10:55;8.77;;;5.03;;
71303;SDS011;59091;47.446;19.148;2023-08-24T10:13:26;11.23;;;5.22;;
71303;SDS011;59091;47.446;19.148;2023-08-24T10:16:02;9.43;;;5.18;;
71303;SDS011;59091;47.446;19.148;2023-08-24T10:18:30;7.93;;;5.65;;
71303;SDS011;59091;47.446;19.148;2023-08-24T10:20:56;10.30;;;5.40;;
71303;SDS011;59091;47.446;19.148;2023-08-24T10:23:22;8.07;;;5.53;;
71303;SDS011;59091;47.446;19.148;2023-08-24T10:25:49;13.30;;;5.13;;
71303;SDS011;59091;47.446;19.148;2023-08-24T10:28:16;9.18;;;5.40;;
71303;SDS011;59091;47.446;19.148;2023-08-24T10:30:43;9.02;;;5.70;;
71303;SDS011;59091;47.446;19.148;2023-08-24T10:33:11;8.68;;;6.03;;
71303;SDS011;59091;47.446;19.148;2023-08-24T10:35:38;9.00;;;5.03;;
71303;SDS011;59091;47.446;19.148;2023-08-24T10:38:05;8.00;;;4.60;;
71303;SDS011;59091;47.446;19.148;2023-08-24T10:40:34;7.80;;;4.60;;
71303;SDS011;59091;47.446;19.148;2023-08-24T10:43:04;7.40;;;5.00;;
71303;SDS011;59091;47.446;19.148;2023-08-24T10:48:25;9.50;;;4.85;;
71303;SDS011;59091;47.446;19.148;2023-08-24T10:53:59;10.27;;;4.97;;
71303;SDS011;59091;47.446;19.148;2023-08-24T10:56:34;6.95;;;4.45;;
71303;SDS011;59091;47.446;19.148;2023-08-24T11:01:59;5.95;;;4.65;;
71303;SDS011;59091;47.446;19.148;2023-08-24T11:04:26;9.27;;;4.80;;
71303;SDS011;59091;47.446;19.148;2023-08-24T11:06:53;9.52;;;4.50;;
71303;SDS011;59091;47.446;19.148;2023-08-24T11:09:20;8.00;;;4.90;;
71303;SDS011;59091;47.446;19.148;2023-08-24T11:12:00;7.28;;;4.55;;
71303;SDS011;59091;47.446;19.148;2023-08-24T11:14:28;7.80;;;4.57;;
71303;SDS011;59091;47.446;19.148;2023-08-24T11:17:40;9.43;;;4.80;;
71303;SDS011;59091;47.446;19.148;2023-08-24T11:19:51;6.22;;;4.95;;
71303;SDS011;59091;47.446;19.148;2023-08-24T11:22:18;5.88;;;4.50;;
71303;SDS011;59091;47.446;19.148;2023-08-24T11:24:43;10.23;;;4.80;;
71303;SDS011;59091;47.446;19.148;2023-08-24T11:27:09;10.43;;;4.50;;
71303;SDS011;59091;47.446;19.148;2023-08-24T11:29:35;6.32;;;4.35;;
71303;SDS011;59091;47.446;19.148;2023-08-24T11:32:00;7.30;;;4.18;;
71303;SDS011;59091;47.446;19.148;2023-08-24T11:34:26;9.90;;;3.85;;
71303;SDS011;59091;47.446;19.148;2023-08-24T11:36:52;4.88;;;4.00;;
71303;SDS011;59091;47.446;19.148;2023-08-24T11:39:19;6.05;;;3.88;;
71303;SDS011;59091;47.446;19.148;2023-08-24T11:44:22;5.72;;;3.97;;
71303;SDS011;59091;47.446;19.148;2023-08-24T11:46:47;9.82;;;3.65;;
71303;SDS011;59091;47.446;19.148;2023-08-24T11:49:13;8.98;;;4.13;;
71303;SDS011;59091;47.446;19.148;2023-08-24T11:51:38;5.20;;;4.03;;
71303;SDS011;59091;47.446;19.148;2023-08-24T11:54:04;6.05;;;4.10;;
71303;SDS011;59091;47.446;19.148;2023-08-24T11:56:31;4.35;;;3.95;;
71303;SDS011;59091;47.446;19.148;2023-08-24T11:58:56;5.95;;;3.50;;
71303;SDS011;59091;47.446;19.148;2023-08-24T12:01:22;4.18;;;3.75;;
71303;SDS011;59091;47.446;19.148;2023-08-24T12:03:48;8.25;;;4.40;;
71303;SDS011;59091;47.446;19.148;2023-08-24T12:06:16;5.47;;;3.60;;
71303;SDS011;59091;47.446;19.148;2023-08-24T12:08:43;4.78;;;4.20;;
71303;SDS011;59091;47.446;19.148;2023-08-24T12:11:17;5.90;;;3.72;;
71303;SDS011;59091;47.446;19.148;2023-08-24T12:13:45;6.20;;;4.03;;
71303;SDS011;59091;47.446;19.148;2023-08-24T12:16:18;4.25;;;3.80;;
71303;SDS011;59091;47.446;19.148;2023-08-24T12:18:51;7.38;;;4.03;;
71303;SDS011;59091;47.446;19.148;2023-08-24T12:21:18;4.97;;;3.70;;
71303;SDS011;59091;47.446;19.148;2023-08-24T12:23:45;6.55;;;3.70;;
71303;SDS011;59091;47.446;19.148;2023-08-24T12:26:19;5.80;;;3.75;;
71303;SDS011;59091;47.446;19.148;2023-08-24T12:28:48;8.32;;;3.80;;
71303;SDS011;59091;47.446;19.148;2023-08-24T12:31:15;16.52;;;4.10;;
71303;SDS011;59091;47.446;19.148;2023-08-24T12:33:42;4.60;;;3.88;;
71303;SDS011;59091;47.446;19.148;2023-08-24T12:36:08;6.28;;;4.00;;
71303;SDS011;59091;47.446;19.148;2023-08-24T12:38:33;5.20;;;3.90;;
71303;SDS011;59091;47.446;19.148;2023-08-24T12:41:00;6.75;;;4.05;;
71303;SDS011;59091;47.446;19.148;2023-08-24T12:43:26;6.97;;;4.63;;
71303;SDS011;59091;47.446;19.148;2023-08-24T12:45:51;4.43;;;3.90;;
71303;SDS011;59091;47.446;19.148;2023-08-24T12:48:17;7.57;;;3.90;;
71303;SDS011;59091;47.446;19.148;2023-08-24T12:50:42;8.43;;;4.00;;
71303;SDS011;59091;47.446;19.148;2023-08-24T12:53:08;4.22;;;3.83;;
71303;SDS011;59091;47.446;19.148;2023-08-24T12:55:35;4.20;;;3.80;;
71303;SDS011;59091;47.446;19.148;2023-08-24T12:58:01;6.47;;;4.00;;
71303;SDS011;59091;47.446;19.148;2023-08-24T13:00:28;8.70;;;3.92;;
71303;SDS011;59091;47.446;19.148;2023-08-24T13:02:59;6.07;;;3.60;;
71303;SDS011;59091;47.446;19.148;2023-08-24T13:05:33;4.32;;;3.45;;
71303;SDS011;59091;47.446;19.148;2023-08-24T13:07:59;3.97;;;3.60;;
71303;SDS011;59091;47.446;19.148;2023-08-24T13:10:24;4.82;;;3.53;;
71303;SDS011;59091;47.446;19.148;2023-08-24T13:12:50;3.88;;;3.58;;
71303;SDS011;59091;47.446;19.148;2023-08-24T13:15:15;3.75;;;3.33;;
71303;SDS011;59091;47.446;19.148;2023-08-24T13:17:41;6.55;;;4.00;;
71303;SDS011;59091;47.446;19.148;2023-08-24T13:20:06;6.72;;;3.53;;
71303;SDS011;59091;47.446;19.148;2023-08-24T13:22:33;5.97;;;3.50;;
71303;SDS011;59091;47.446;19.148;2023-08-24T13:24:58;6.28;;;3.60;;
71303;SDS011;59091;47.446;19.148;2023-08-24T13:27:24;5.05;;;3.55;;
71303;SDS011;59091;47.446;19.148;2023-08-24T13:29:49;3.65;;;3.35;;
71303;SDS011;59091;47.446;19.148;2023-08-24T13:32:15;4.18;;;3.63;;
71303;SDS011;59091;47.446;19.148;2023-08-24T13:34:40;4.03;;;3.58;;
71303;SDS011;59091;47.446;19.148;2023-08-24T13:37:06;4.55;;;3.58;;
71303;SDS011;59091;47.446;19.148;2023-08-24T13:39:31;6.38;;;3.60;;
71303;SDS011;59091;47.446;19.148;2023-08-24T13:41:57;7.57;;;3.80;;
71303;SDS011;59091;47.446;19.148;2023-08-24T13:44:24;7.05;;;3.75;;
71303;SDS011;59091;47.446;19.148;2023-08-24T13:46:50;4.05;;;3.65;;
71303;SDS011;59091;47.446;19.148;2023-08-24T13:49:19;46.33;;;5.25;;
71303;SDS011;59091;47.446;19.148;2023-08-24T13:51:44;25.33;;;4.78;;
71303;SDS011;59091;47.446;19.148;2023-08-24T13:54:16;8.07;;;3.67;;
71303;SDS011;59091;47.446;19.148;2023-08-24T13:56:44;5.53;;;3.70;;
71303;SDS011;59091;47.446;19.148;2023-08-24T13:59:10;6.22;;;3.83;;
71303;SDS011;59091;47.446;19.148;2023-08-24T14:01:36;6.45;;;3.70;;
71303;SDS011;59091;47.446;19.148;2023-08-24T14:04:02;5.03;;;3.72;;
71303;SDS011;59091;47.446;19.148;2023-08-24T14:06:28;4.22;;;3.60;;
71303;SDS011;59091;47.446;19.148;2023-08-24T14:08:54;4.88;;;3.40;;
71303;SDS011;59091;47.446;19.148;2023-08-24T14:11:21;5.53;;;3.33;;
71303;SDS011;59091;47.446;19.148;2023-08-24T14:13:46;5.85;;;3.22;;
71303;SDS011;59091;47.446;19.148;2023-08-24T14:16:12;8.77;;;3.55;;
71303;SDS011;59091;47.446;19.148;2023-08-24T14:18:37;7.30;;;3.35;;
71303;SDS011;59091;47.446;19.148;2023-08-24T14:21:03;7.15;;;3.78;;
71303;SDS011;59091;47.446;19.148;2023-08-24T14:23:28;8.70;;;3.40;;
71303;SDS011;59091;47.446;19.148;2023-08-24T14:25:54;4.32;;;3.50;;
71303;SDS011;59091;47.446;19.148;2023-08-24T14:28:20;9.82;;;3.80;;
71303;SDS011;59091;47.446;19.148;2023-08-24T14:30:47;5.60;;;3.50;;
71303;SDS011;59091;47.446;19.148;2023-08-24T14:33:14;6.03;;;3.35;;
71303;SDS011;59091;47.446;19.148;2023-08-24T14:35:39;5.82;;;3.80;;
71303;SDS011;59091;47.446;19.148;2023-08-24T14:38:04;6.13;;;3.35;;
71303;SDS011;59091;47.446;19.148;2023-08-24T14:40:30;5.22;;;3.20;;
71303;SDS011;59091;47.446;19.148;2023-08-24T14:42:55;6.32;;;3.40;;